Weather History for KADH - December, 2013

Change the Weather History Date:

Saturday, December 28, 2013

  Actual Average Record
Temperature  
Mean Temperature 46 °F -  
Max Temperature 59 °F - - ()
Min Temperature 32 °F - - ()
Degree Days  
Heating Degree Days 20    
Moisture  
Dew Point 37 °F    
Average Humidity 75    
Maximum Humidity 100    
Minimum Humidity 48    
Precipitation  
Precipitation 0.00 in - - ()
Sea Level Pressure  
Sea Level Pressure 30.10 in    
Wind  
Wind Speed 7 mph (South)    
Max Wind Speed 14 mph    
Max Gust Speed 18 mph    
Visibility 10 miles    
Events      
T = Trace of Precipitation, MM = Missing Value Source: NWS Daily Summary

Daily Weather History Graph

Daily Weather History Graph

Search for Another Location

Airport or City:

Trip Planner

Search our weather history database for the weather conditions in past years. The results will help you decide how hot, cold, wet, or windy it might be!

Date:

Astronomy

Dec. 28, 2013 Rise Set
Actual Time 7:33 AM CST 5:23 PM CST
Civil Twilight 7:05 AM CST 5:51 PM CST
Nautical Twilight 6:33 AM CST 6:23 PM CST
Astronomical Twilight 6:02 AM CST 6:54 PM CST
Moon 3:16 AM CST (12/28) 2:11 PM CST (12/28)
Length of Visible Light 10h 46m
Length of Day
9h 50m
Waning Crescent, 19% of the Moon is Illuminated
Dec 28
Waning Crescent
Jan 1
New
Jan 7
First Quarter
Jan 15
Full
Jan 23
Last Quarter

Hourly Weather History & Observations

Time (CST) Temp. Windchill Dew Point Humidity Pressure Visibility Wind Dir Wind Speed Gust Speed Precip Events Conditions
12:15 AM 37.4 °F 33.8 °F 32.0 °F 81% 30.30 in 10.0 mi South 4.6 mph - N/A   Clear
12:35 AM 37.4 °F 34.9 °F 32.0 °F 81% 30.30 in 10.0 mi South 3.5 mph - N/A   Clear
12:55 AM 35.6 °F 32.8 °F 32.0 °F 87% 30.30 in 10.0 mi South 3.5 mph - N/A   Clear
1:15 AM 35.6 °F 30.7 °F 32.0 °F 87% 30.29 in 10.0 mi South 5.8 mph - N/A   Clear
1:35 AM 35.6 °F 31.7 °F 32.0 °F 87% 30.28 in 10.0 mi South 4.6 mph - N/A   Clear
1:55 AM 35.6 °F 31.7 °F 32.0 °F 87% 30.27 in 10.0 mi South 4.6 mph - N/A   Clear
2:15 AM 35.6 °F 31.7 °F 32.0 °F 87% 30.27 in 10.0 mi South 4.6 mph - N/A   Clear
2:35 AM 35.6 °F 29.9 °F 32.0 °F 87% 30.27 in 10.0 mi South 6.9 mph - N/A   Clear
2:55 AM 35.6 °F 30.7 °F 32.0 °F 87% 30.26 in 10.0 mi South 5.8 mph - N/A   Clear
3:15 AM 35.6 °F 31.7 °F 32.0 °F 87% 30.25 in 10.0 mi South 4.6 mph - N/A   Clear
3:35 AM 35.6 °F 32.8 °F 32.0 °F 87% 30.24 in 10.0 mi South 3.5 mph - N/A   Clear
3:55 AM 35.6 °F 30.7 °F 32.0 °F 87% 30.24 in 10.0 mi South 5.8 mph - N/A   Clear
4:15 AM 33.8 °F 28.6 °F 32.0 °F 93% 30.23 in 10.0 mi South 5.8 mph - N/A   Clear
4:35 AM 35.6 °F 30.7 °F 32.0 °F 87% 30.23 in 10.0 mi SSW 5.8 mph - N/A   Clear
4:55 AM 35.6 °F 30.7 °F 32.0 °F 87% 30.22 in 10.0 mi South 5.8 mph - N/A   Clear
5:15 AM 33.8 °F 28.6 °F 32.0 °F 93% 30.21 in 10.0 mi South 5.8 mph - N/A   Clear
5:35 AM 32.0 °F 26.4 °F 32.0 °F 100% 30.21 in 10.0 mi South 5.8 mph - N/A   Clear
5:55 AM 33.8 °F 29.6 °F 32.0 °F 93% 30.21 in 10.0 mi South 4.6 mph - N/A   Clear
6:15 AM 33.8 °F 29.6 °F 32.0 °F 93% 30.20 in 10.0 mi South 4.6 mph - N/A   Clear
6:35 AM 33.8 °F 29.6 °F 32.0 °F 93% 30.21 in 10.0 mi South 4.6 mph - N/A   Clear
6:55 AM 33.8 °F 28.6 °F 32.0 °F 93% 30.21 in 10.0 mi South 5.8 mph - N/A   Clear
7:15 AM 32.0 °F 27.5 °F 32.0 °F 100% 30.21 in 10.0 mi South 4.6 mph - N/A   Clear
7:35 AM 33.8 °F 30.8 °F 32.0 °F 93% 30.21 in 10.0 mi South 3.5 mph - N/A   Clear
7:55 AM 33.8 °F 29.6 °F 32.0 °F 93% 30.21 in 10.0 mi South 4.6 mph - N/A   Clear
8:15 AM 33.8 °F 30.8 °F 33.8 °F 100% 30.20 in 7.0 mi South 3.5 mph - N/A   Clear
8:35 AM 35.6 °F 32.8 °F 35.6 °F 100% 30.20 in 7.0 mi South 3.5 mph - N/A   Clear
8:55 AM 37.4 °F 33.8 °F 35.6 °F 93% 30.20 in 10.0 mi South 4.6 mph - N/A   Clear
9:15 AM 37.4 °F 32.8 °F 35.6 °F 93% 30.20 in 10.0 mi South 5.8 mph - N/A   Clear
9:35 AM 41.0 °F 36.4 °F 35.6 °F 81% 30.20 in 10.0 mi South 6.9 mph - N/A   Clear
9:55 AM 42.8 °F 38.0 °F 37.4 °F 81% 30.19 in 10.0 mi South 8.1 mph - N/A   Clear
10:15 AM 46.4 °F 42.4 °F 39.2 °F 76% 30.19 in 10.0 mi South 8.1 mph - N/A   Clear
10:35 AM 48.2 °F - 39.2 °F 71% 30.17 in 10.0 mi South 6.9 mph - N/A   Clear
10:55 AM 50.0 °F - 39.2 °F 66% 30.17 in 10.0 mi South 9.2 mph - N/A   Clear
11:15 AM 51.8 °F - 39.2 °F 62% 30.15 in 10.0 mi South 10.4 mph - N/A   Clear
11:35 AM 53.6 °F - 39.2 °F 58% 30.14 in 10.0 mi South 12.7 mph - N/A   Clear
11:55 AM 53.6 °F - 41.0 °F 62% 30.12 in 10.0 mi South 10.4 mph - N/A   Clear
12:15 PM 55.4 °F - 41.0 °F 58% 30.10 in 10.0 mi South 12.7 mph 17.3 mph N/A   Clear
12:35 PM 55.4 °F - 39.2 °F 54% 30.08 in 10.0 mi SSW 9.2 mph 18.4 mph N/A   Clear
12:55 PM 55.4 °F - 39.2 °F 54% 30.07 in 10.0 mi SSW 10.4 mph - N/A   Clear
1:15 PM 55.4 °F - 41.0 °F 58% 30.05 in 10.0 mi South 12.7 mph - N/A   Clear
1:35 PM 55.4 °F - 41.0 °F 58% 30.04 in 10.0 mi South 12.7 mph 17.3 mph N/A   Clear
1:55 PM 57.2 °F - 41.0 °F 55% 30.02 in 10.0 mi South 13.8 mph - N/A   Clear
2:15 PM 59.0 °F - 39.2 °F 48% 30.01 in 10.0 mi SSW 11.5 mph - N/A   Clear
2:35 PM 59.0 °F - 41.0 °F 51% 30.00 in 10.0 mi SSW 10.4 mph 16.1 mph N/A   Clear
2:55 PM 59.0 °F - 41.0 °F 51% 29.99 in 10.0 mi South 10.4 mph - N/A   Clear
3:15 PM 57.2 °F - 41.0 °F 55% 29.99 in 10.0 mi South 12.7 mph - N/A   Clear
3:35 PM 57.2 °F - 41.0 °F 55% 29.99 in 10.0 mi South 12.7 mph - N/A   Clear
3:55 PM 57.2 °F - 41.0 °F 55% 29.98 in 10.0 mi South 11.5 mph - N/A   Scattered Clouds
4:15 PM 55.4 °F - 41.0 °F 58% 29.98 in 10.0 mi SSW 12.7 mph 16.1 mph N/A   Scattered Clouds
4:35 PM 53.6 °F - 39.2 °F 58% 29.97 in 10.0 mi South 8.1 mph - N/A   Mostly Cloudy
4:55 PM 53.6 °F - 39.2 °F 58% 29.97 in 10.0 mi SSE 10.4 mph - N/A   Overcast
5:15 PM 51.8 °F - 39.2 °F 62% 29.97 in 10.0 mi SSE 11.5 mph - N/A   Overcast
5:35 PM 51.8 °F - 39.2 °F 62% 29.97 in 10.0 mi SSE 8.1 mph - N/A   Mostly Cloudy
5:55 PM 51.8 °F - 39.2 °F 62% 29.97 in 10.0 mi SSE 9.2 mph - N/A   Overcast
6:15 PM 51.8 °F - 39.2 °F 62% 29.97 in 10.0 mi South 8.1 mph - N/A   Overcast
6:35 PM 51.8 °F - 39.2 °F 62% 29.97 in 10.0 mi South 9.2 mph - N/A   Overcast
6:55 PM 50.0 °F - 37.4 °F 62% 29.97 in 10.0 mi South 6.9 mph - N/A   Overcast
7:15 PM 50.0 °F - 37.4 °F 62% 29.96 in 10.0 mi SSE 6.9 mph - N/A   Overcast
7:35 PM 50.0 °F - 39.2 °F 66% 29.97 in 10.0 mi SSE 6.9 mph - N/A   Overcast
7:55 PM 50.0 °F - 39.2 °F 66% 29.96 in 10.0 mi SSE 6.9 mph - N/A   Overcast
8:15 PM 50.0 °F - 39.2 °F 66% 29.96 in 10.0 mi SSE 8.1 mph - N/A   Overcast
8:35 PM 50.0 °F - 39.2 °F 66% 29.96 in 10.0 mi South 8.1 mph - N/A   Overcast
8:55 PM 50.0 °F - 39.2 °F 66% 29.95 in 10.0 mi South 8.1 mph - N/A   Overcast
9:15 PM 46.4 °F 42.4 °F 37.4 °F 71% 29.95 in 10.0 mi South 8.1 mph - N/A   Scattered Clouds
9:35 PM 46.4 °F 42.9 °F 37.4 °F 71% 29.95 in 10.0 mi South 6.9 mph - N/A   Clear
9:55 PM 44.6 °F 40.7 °F 37.4 °F 76% 29.95 in 10.0 mi South 6.9 mph - N/A   Clear
10:15 PM 44.6 °F 40.7 °F 37.4 °F 76% 29.95 in 10.0 mi South 6.9 mph - N/A   Clear
10:35 PM 44.6 °F 40.2 °F 37.4 °F 76% 29.94 in 10.0 mi SSE 8.1 mph - N/A   Clear
10:55 PM 44.6 °F 40.2 °F 37.4 °F 76% 29.95 in 10.0 mi South 8.1 mph - N/A   Clear
11:15 PM 44.6 °F 40.2 °F 37.4 °F 76% 29.95 in 10.0 mi South 8.1 mph - N/A   Clear
11:35 PM 42.8 °F 38.6 °F 37.4 °F 81% 29.95 in 10.0 mi South 6.9 mph - N/A   Clear
11:55 PM 42.8 °F 38.6 °F 37.4 °F 81% 29.94 in 10.0 mi South 6.9 mph - N/A   Clear